Map

Track Data

SID SEASON NUMBER BASIN SUBBASIN NAME ISO_TIME NATURE LAT LON WMO_WIND WMO_PRES WMO_AGENCY TRACK_TYPE DIST2LAND LANDFALL IFLAG USA_AGENCY USA_ATCF_ID USA_LAT USA_LON USA_RECORD USA_STATUS USA_WIND USA_PRES USA_SSHS USA_R34_NE USA_R34_SE USA_R34_SW USA_R34_NW USA_R50_NE USA_R50_SE USA_R50_SW USA_R50_NW USA_R64_NE USA_R64_SE USA_R64_SW USA_R64_NW USA_POCI USA_ROCI USA_RMW USA_EYE TOKYO_LAT TOKYO_LON TOKYO_GRADE TOKYO_WIND TOKYO_PRES TOKYO_R50_DIR TOKYO_R50_LONG TOKYO_R50_SHORT TOKYO_R30_DIR TOKYO_R30_LONG TOKYO_R30_SHORT TOKYO_LAND CMA_LAT CMA_LON CMA_CAT CMA_WIND CMA_PRES HKO_LAT HKO_LON HKO_CAT HKO_WIND HKO_PRES NEWDELHI_LAT NEWDELHI_LON NEWDELHI_GRADE NEWDELHI_WIND NEWDELHI_PRES NEWDELHI_CI NEWDELHI_DP NEWDELHI_POCI REUNION_LAT REUNION_LON REUNION_TYPE REUNION_WIND REUNION_PRES REUNION_TNUM REUNION_CI REUNION_RMW REUNION_R34_NE REUNION_R34_SE REUNION_R34_SW REUNION_R34_NW REUNION_R50_NE REUNION_R50_SE REUNION_R50_SW REUNION_R50_NW REUNION_R64_NE REUNION_R64_SE REUNION_R64_SW REUNION_R64_NW BOM_LAT BOM_LON BOM_TYPE BOM_WIND BOM_PRES BOM_TNUM BOM_CI BOM_RMW BOM_R34_NE BOM_R34_SE BOM_R34_SW BOM_R34_NW BOM_R50_NE BOM_R50_SE BOM_R50_SW BOM_R50_NW BOM_R64_NE BOM_R64_SE BOM_R64_SW BOM_R64_NW BOM_ROCI BOM_POCI BOM_EYE BOM_POS_METHOD BOM_PRES_METHOD NADI_LAT NADI_LON NADI_CAT NADI_WIND NADI_PRES WELLINGTON_LAT WELLINGTON_LON WELLINGTON_WIND WELLINGTON_PRES DS824_LAT DS824_LON DS824_STAGE DS824_WIND DS824_PRES TD9636_LAT TD9636_LON TD9636_STAGE TD9636_WIND TD9636_PRES TD9635_LAT TD9635_LON TD9635_WIND TD9635_PRES TD9635_ROCI NEUMANN_LAT NEUMANN_LON NEUMANN_CLASS NEUMANN_WIND NEUMANN_PRES MLC_LAT MLC_LON MLC_CLASS MLC_WIND MLC_PRES USA_GUST BOM_GUST BOM_GUST_PER REUNION_GUST REUNION_GUST_PER USA_SEAHGT USA_SEARAD_NE USA_SEARAD_SE USA_SEARAD_SW USA_SEARAD_NW STORM_SPEED STORM_DIR
1889217N21089 1889 11 NI BB NOT_NAMED 1889-08-05 00:00:00 TS 21.0000 88.5000 main 67 67 _________O____ -1 21.0000 88.5000 TC 30 7 265
1889217N21089 1889 11 NI BB NOT_NAMED 1889-08-05 03:00:00 TS 20.9685 88.1400 main 67 63 _________PO___ -1 20.9528 87.9600 TC 30 21.0000 88.5000 1 8 264
1889217N21089 1889 11 NI BB NOT_NAMED 1889-08-05 06:00:00 TS 20.9154 87.6173 main 63 15 _________OP___ -1 20.9000 87.4000 TC 30 20.9384 87.9432 1 10 264
1889217N21089 1889 11 NI BB NOT_NAMED 1889-08-05 09:00:00 TS 20.8588 87.0525 main 15 0 _________PP___ -1 20.8424 86.8074 TC 30 20.8808 87.3793 1 10 265
1889217N21089 1889 11 NI BB NOT_NAMED 1889-08-05 12:00:00 TS 20.8164 86.5004 main 0 0 _________OP___ -1 20.8000 86.2000 TC 30 20.8328 86.8008 1 11 267
1889217N21089 1889 11 NI BB NOT_NAMED 1889-08-05 15:00:00 TS 20.7961 85.9000 main 0 0 _________PO___ -1 20.7923 85.6001 TC 30 20.8000 86.2000 1 11 269
1889217N21089 1889 11 NI BB NOT_NAMED 1889-08-05 18:00:00 TS 20.7929 85.2875 main 0 0 _________OP___ -1 20.8000 85.0000 TC 30 20.7858 85.5750 1 12 270
1889217N21089 1889 11 NI BB NOT_NAMED 1889-08-05 21:00:00 TS 20.7927 84.6590 main 0 0 _________PP___ -1 20.8001 84.3700 TC 30 20.7854 84.9479 1 11 270
1889217N21089 1889 11 NI BB NOT_NAMED 1889-08-06 00:00:00 TS 20.7961 84.0734 main 0 0 _________OP___ -1 20.8000 83.8000 TC 30 20.7922 84.3468 1 10 270
1889217N21089 1889 11 NI BB NOT_NAMED 1889-08-06 03:00:00 TS 20.7998 83.5850 main 0 0 _________PO___ -1 20.7997 83.3700 TC 30 20.8000 83.8000 1 8 270
1889217N21089 1889 11 NI BB NOT_NAMED 1889-08-06 06:00:00 TS 20.7893 83.1711 main 0 0 _________OP___ -1 20.8000 83.0000 TC 30 20.7786 83.3422 1 8 268
1889217N21089 1889 11 NI BB NOT_NAMED 1889-08-06 09:00:00 TS 20.7730 82.7697 main 0 0 _________PP___ -1 20.7849 82.5999 TC 30 20.7612 82.9395 1 7 269
1889217N21089 1889 11 NI BB NOT_NAMED 1889-08-06 12:00:00 TS 20.7816 82.3835 main 0 0 _________OP___ -1 20.8000 82.2000 TC 30 20.7632 82.5671 1 7 275
1889217N21089 1889 11 NI BB NOT_NAMED 1889-08-06 15:00:00 TS 20.8387 82.0000 main 0 0 _________PO___ -1 20.8774 81.8000 TC 30 20.8000 82.2000 1 8 282
1889217N21089 1889 11 NI BB NOT_NAMED 1889-08-06 18:00:00 TS 20.9384 81.5940 main 0 0 _________OP___ -1 21.0000 81.4000 TC 30 20.8768 81.7880 1 8 286
1889217N21089 1889 11 NI BB NOT_NAMED 1889-08-06 21:00:00 TS 21.0624 81.1850 main 0 0 _________PP___ -1 21.1350 80.9924 TC 30 20.9899 81.3776 1 8 290
1889217N21089 1889 11 NI BB NOT_NAMED 1889-08-07 00:00:00 TS 21.2165 80.7892 main 0 0 _________OP___ -1 21.3000 80.6000 TC 30 21.1331 80.9785 1 8 295
1889217N21089 1889 11 NI BB NOT_NAMED 1889-08-07 03:00:00 TS 21.3962 80.4175 main 0 0 _________PO___ -1 21.4924 80.2350 TC 30 21.3000 80.6000 1 8 299
1889217N21089 1889 11 NI BB NOT_NAMED 1889-08-07 06:00:00 TS 21.5850 80.0706 main 0 0 _________OP___ -1 21.7000 79.9000 TC 30 21.4700 80.2411 1 7 301
1889217N21089 1889 11 NI BB NOT_NAMED 1889-08-07 09:00:00 TS 21.7773 79.7449 main 0 0 _________PP___ -1 21.8924 79.5849 TC 30 21.6622 79.9048 1 7 305
1889217N21089 1889 11 NI BB NOT_NAMED 1889-08-07 12:00:00 TS 21.9866 79.4456 main 0 0 _________OP___ -1 22.1000 79.3000 TC 30 21.8733 79.5911 1 7 310
1889217N21089 1889 11 NI BB NOT_NAMED 1889-08-07 15:00:00 TS 22.2212 79.1712 main 0 0 _________PO___ -1 22.3424 79.0424 TC 30 22.1000 79.3000 1 7 314
1889217N21089 1889 11 NI BB NOT_NAMED 1889-08-07 18:00:00 TS 22.4510 78.9318 main 0 0 _________OP___ -1 22.6000 78.8000 TC 30 22.3392 79.0306 1 7 317
1889217N21089 1889 11 NI BB NOT_NAMED 1889-08-07 21:00:00 TS 22.6937 78.6880 main 0 0 _________PP___ -1 22.8526 78.5527 TC 30 22.5878 78.7781 1 6 317
1889217N21089 1889 11 NI BB NOT_NAMED 1889-08-08 00:00:00 TS 22.9283 78.4577 main 0 0 _________OP___ -1 23.1000 78.3000 TC 30 22.8424 78.5365 1 5 319
1889217N21089 1889 11 NI BB NOT_NAMED 1889-08-08 03:00:00 NR 23.1000 78.3000 main 0 __________O___ -1 TC 23.1000 78.3000 1 5 320

About IBTrACS Database

This database is a web-friendly format of International Best Track Archive for Climate Stewardship (IBTrACS), a global best track data archive curated by NOAA dating back to 1842.

Updated: 2021-10-08